sensor_id;sensor_type;location;lat;lon;timestamp;temperature;humidity
19007;DHT22;9636;47.382;8.480;2023-08-17T00:00:03;25.90;93.30
19007;DHT22;9636;47.382;8.480;2023-08-17T00:02:34;25.80;93.30
19007;DHT22;9636;47.382;8.480;2023-08-17T00:05:01;25.80;93.40
19007;DHT22;9636;47.382;8.480;2023-08-17T00:07:28;25.80;93.40
19007;DHT22;9636;47.382;8.480;2023-08-17T00:09:56;25.80;93.50
19007;DHT22;9636;47.382;8.480;2023-08-17T00:12:23;25.70;93.50
19007;DHT22;9636;47.382;8.480;2023-08-17T00:14:51;25.70;93.50
19007;DHT22;9636;47.382;8.480;2023-08-17T00:17:18;25.70;93.50
19007;DHT22;9636;47.382;8.480;2023-08-17T00:19:45;25.70;93.60
19007;DHT22;9636;47.382;8.480;2023-08-17T00:22:12;25.60;93.60
19007;DHT22;9636;47.382;8.480;2023-08-17T00:24:40;25.60;93.60
19007;DHT22;9636;47.382;8.480;2023-08-17T00:27:10;25.50;93.60
19007;DHT22;9636;47.382;8.480;2023-08-17T00:29:38;25.50;93.70
19007;DHT22;9636;47.382;8.480;2023-08-17T00:32:06;25.50;93.70
19007;DHT22;9636;47.382;8.480;2023-08-17T00:34:33;25.50;93.70
19007;DHT22;9636;47.382;8.480;2023-08-17T00:37:00;25.40;93.80
19007;DHT22;9636;47.382;8.480;2023-08-17T00:39:27;25.40;93.80
19007;DHT22;9636;47.382;8.480;2023-08-17T00:41:55;25.40;93.80
19007;DHT22;9636;47.382;8.480;2023-08-17T00:44:24;25.40;93.80
19007;DHT22;9636;47.382;8.480;2023-08-17T00:46:51;25.40;93.90
19007;DHT22;9636;47.382;8.480;2023-08-17T00:49:19;25.30;93.90
19007;DHT22;9636;47.382;8.480;2023-08-17T00:51:46;25.30;94.30
19007;DHT22;9636;47.382;8.480;2023-08-17T00:54:13;25.30;94.00
19007;DHT22;9636;47.382;8.480;2023-08-17T00:56:42;25.20;93.90
19007;DHT22;9636;47.382;8.480;2023-08-17T00:59:10;25.20;94.00
19007;DHT22;9636;47.382;8.480;2023-08-17T01:01:39;25.20;94.00
19007;DHT22;9636;47.382;8.480;2023-08-17T01:04:06;25.20;94.00
19007;DHT22;9636;47.382;8.480;2023-08-17T01:06:33;25.10;94.00
19007;DHT22;9636;47.382;8.480;2023-08-17T01:09:00;25.10;94.10
19007;DHT22;9636;47.382;8.480;2023-08-17T01:11:31;25.10;94.10
19007;DHT22;9636;47.382;8.480;2023-08-17T01:14:04;25.10;94.10
19007;DHT22;9636;47.382;8.480;2023-08-17T01:16:35;25.00;94.10
19007;DHT22;9636;47.382;8.480;2023-08-17T01:19:08;25.00;94.10
19007;DHT22;9636;47.382;8.480;2023-08-17T01:21:40;25.00;94.20
19007;DHT22;9636;47.382;8.480;2023-08-17T01:24:11;25.00;94.30
19007;DHT22;9636;47.382;8.480;2023-08-17T01:26:38;24.90;94.30
19007;DHT22;9636;47.382;8.480;2023-08-17T01:29:05;25.00;94.30
19007;DHT22;9636;47.382;8.480;2023-08-17T01:31:39;24.90;94.30
19007;DHT22;9636;47.382;8.480;2023-08-17T01:34:10;24.90;94.70
19007;DHT22;9636;47.382;8.480;2023-08-17T01:36:48;24.80;94.50
19007;DHT22;9636;47.382;8.480;2023-08-17T01:39:21;24.80;94.50
19007;DHT22;9636;47.382;8.480;2023-08-17T01:41:51;24.80;94.50
19007;DHT22;9636;47.382;8.480;2023-08-17T01:44:20;24.80;94.50
19007;DHT22;9636;47.382;8.480;2023-08-17T01:46:48;24.80;94.60
19007;DHT22;9636;47.382;8.480;2023-08-17T01:49:16;24.70;94.60
19007;DHT22;9636;47.382;8.480;2023-08-17T01:51:43;24.70;94.60
19007;DHT22;9636;47.382;8.480;2023-08-17T01:54:10;24.70;94.70
19007;DHT22;9636;47.382;8.480;2023-08-17T01:56:39;24.60;94.70
19007;DHT22;9636;47.382;8.480;2023-08-17T01:59:06;24.60;94.70
19007;DHT22;9636;47.382;8.480;2023-08-17T02:01:34;24.60;94.70
19007;DHT22;9636;47.382;8.480;2023-08-17T02:04:01;24.60;94.80
19007;DHT22;9636;47.382;8.480;2023-08-17T02:06:28;24.60;94.80
19007;DHT22;9636;47.382;8.480;2023-08-17T02:08:55;24.50;94.80
19007;DHT22;9636;47.382;8.480;2023-08-17T02:11:22;24.50;94.80
19007;DHT22;9636;47.382;8.480;2023-08-17T02:13:51;24.50;94.80
19007;DHT22;9636;47.382;8.480;2023-08-17T02:16:18;24.50;94.90
19007;DHT22;9636;47.382;8.480;2023-08-17T02:18:45;24.40;94.90
19007;DHT22;9636;47.382;8.480;2023-08-17T02:21:12;24.40;95.00
19007;DHT22;9636;47.382;8.480;2023-08-17T02:23:39;24.40;95.00
19007;DHT22;9636;47.382;8.480;2023-08-17T02:26:07;24.40;95.00
19007;DHT22;9636;47.382;8.480;2023-08-17T02:28:34;24.40;95.00
19007;DHT22;9636;47.382;8.480;2023-08-17T02:31:02;24.30;95.00
19007;DHT22;9636;47.382;8.480;2023-08-17T02:33:30;24.30;95.10
19007;DHT22;9636;47.382;8.480;2023-08-17T02:35:57;24.30;95.10
19007;DHT22;9636;47.382;8.480;2023-08-17T02:38:24;24.30;95.10
19007;DHT22;9636;47.382;8.480;2023-08-17T02:40:51;24.30;95.20
19007;DHT22;9636;47.382;8.480;2023-08-17T02:43:18;24.20;95.10
19007;DHT22;9636;47.382;8.480;2023-08-17T02:45:45;24.30;95.30
19007;DHT22;9636;47.382;8.480;2023-08-17T02:48:15;24.20;95.30
19007;DHT22;9636;47.382;8.480;2023-08-17T02:50:42;24.20;95.30
19007;DHT22;9636;47.382;8.480;2023-08-17T02:53:09;24.10;95.40
19007;DHT22;9636;47.382;8.480;2023-08-17T02:55:36;24.10;95.40
19007;DHT22;9636;47.382;8.480;2023-08-17T02:58:04;24.10;95.50
19007;DHT22;9636;47.382;8.480;2023-08-17T03:00:31;24.10;95.50
19007;DHT22;9636;47.382;8.480;2023-08-17T03:02:58;24.10;95.60
19007;DHT22;9636;47.382;8.480;2023-08-17T03:05:27;24.10;95.60
19007;DHT22;9636;47.382;8.480;2023-08-17T03:07:54;24.10;95.60
19007;DHT22;9636;47.382;8.480;2023-08-17T03:10:21;24.00;95.60
19007;DHT22;9636;47.382;8.480;2023-08-17T03:12:50;24.00;95.70
19007;DHT22;9636;47.382;8.480;2023-08-17T03:15:18;24.00;95.70
19007;DHT22;9636;47.382;8.480;2023-08-17T03:17:45;24.00;95.70
19007;DHT22;9636;47.382;8.480;2023-08-17T03:20:12;23.90;95.80
19007;DHT22;9636;47.382;8.480;2023-08-17T03:22:41;23.90;95.80
19007;DHT22;9636;47.382;8.480;2023-08-17T03:25:08;23.90;95.80
19007;DHT22;9636;47.382;8.480;2023-08-17T03:27:36;23.90;95.80
19007;DHT22;9636;47.382;8.480;2023-08-17T03:30:05;23.90;95.90
19007;DHT22;9636;47.382;8.480;2023-08-17T03:32:33;23.90;96.00
19007;DHT22;9636;47.382;8.480;2023-08-17T03:35:00;23.80;96.00
19007;DHT22;9636;47.382;8.480;2023-08-17T03:37:27;23.80;96.00
19007;DHT22;9636;47.382;8.480;2023-08-17T03:39:56;23.80;96.10
19007;DHT22;9636;47.382;8.480;2023-08-17T03:42:23;23.80;96.10
19007;DHT22;9636;47.382;8.480;2023-08-17T03:44:50;23.70;96.10
19007;DHT22;9636;47.382;8.480;2023-08-17T03:47:18;23.70;96.20
19007;DHT22;9636;47.382;8.480;2023-08-17T03:49:45;23.70;96.20
19007;DHT22;9636;47.382;8.480;2023-08-17T03:52:12;23.70;96.30
19007;DHT22;9636;47.382;8.480;2023-08-17T03:54:40;23.70;96.30
19007;DHT22;9636;47.382;8.480;2023-08-17T03:57:09;23.70;96.40
19007;DHT22;9636;47.382;8.480;2023-08-17T03:59:36;23.60;96.50
19007;DHT22;9636;47.382;8.480;2023-08-17T04:02:03;23.70;96.50
19007;DHT22;9636;47.382;8.480;2023-08-17T04:04:31;23.60;96.50
19007;DHT22;9636;47.382;8.480;2023-08-17T04:06:58;23.60;96.60
19007;DHT22;9636;47.382;8.480;2023-08-17T04:09:26;23.60;96.60
19007;DHT22;9636;47.382;8.480;2023-08-17T04:11:53;23.50;96.60
19007;DHT22;9636;47.382;8.480;2023-08-17T04:14:24;23.50;96.70
19007;DHT22;9636;47.382;8.480;2023-08-17T04:16:51;23.50;96.70
19007;DHT22;9636;47.382;8.480;2023-08-17T04:19:19;23.50;96.80
19007;DHT22;9636;47.382;8.480;2023-08-17T04:21:46;23.50;96.80
19007;DHT22;9636;47.382;8.480;2023-08-17T04:24:14;23.40;96.80
19007;DHT22;9636;47.382;8.480;2023-08-17T04:26:41;23.40;96.90
19007;DHT22;9636;47.382;8.480;2023-08-17T04:29:08;23.40;96.90
19007;DHT22;9636;47.382;8.480;2023-08-17T04:31:36;23.40;97.00
19007;DHT22;9636;47.382;8.480;2023-08-17T04:34:05;23.40;97.00
19007;DHT22;9636;47.382;8.480;2023-08-17T04:36:32;23.40;97.10
19007;DHT22;9636;47.382;8.480;2023-08-17T04:38:59;23.40;97.40
19007;DHT22;9636;47.382;8.480;2023-08-17T04:41:26;23.40;97.20
19007;DHT22;9636;47.382;8.480;2023-08-17T04:43:53;23.40;97.20
19007;DHT22;9636;47.382;8.480;2023-08-17T04:46:20;23.40;97.20
19007;DHT22;9636;47.382;8.480;2023-08-17T04:48:49;23.40;97.60
19007;DHT22;9636;47.382;8.480;2023-08-17T04:51:16;23.30;97.30
19007;DHT22;9636;47.382;8.480;2023-08-17T04:53:44;23.30;97.30
19007;DHT22;9636;47.382;8.480;2023-08-17T04:56:11;23.40;97.70
19007;DHT22;9636;47.382;8.480;2023-08-17T04:58:38;23.40;97.30
19007;DHT22;9636;47.382;8.480;2023-08-17T05:01:07;23.40;97.30
19007;DHT22;9636;47.382;8.480;2023-08-17T05:03:34;23.40;97.30
19007;DHT22;9636;47.382;8.480;2023-08-17T05:06:03;23.50;97.40
19007;DHT22;9636;47.382;8.480;2023-08-17T05:08:31;23.50;97.40
19007;DHT22;9636;47.382;8.480;2023-08-17T05:10:58;23.50;97.40
19007;DHT22;9636;47.382;8.480;2023-08-17T05:13:25;23.50;97.50
19007;DHT22;9636;47.382;8.480;2023-08-17T05:15:52;23.50;97.50
19007;DHT22;9636;47.382;8.480;2023-08-17T05:18:20;23.60;97.60
19007;DHT22;9636;47.382;8.480;2023-08-17T05:20:47;23.60;97.60
19007;DHT22;9636;47.382;8.480;2023-08-17T05:23:15;23.60;97.60
19007;DHT22;9636;47.382;8.480;2023-08-17T05:25:46;23.70;97.60
19007;DHT22;9636;47.382;8.480;2023-08-17T05:28:14;23.70;97.60
19007;DHT22;9636;47.382;8.480;2023-08-17T05:30:41;23.70;97.60
19007;DHT22;9636;47.382;8.480;2023-08-17T05:33:08;23.80;97.60
19007;DHT22;9636;47.382;8.480;2023-08-17T05:35:36;23.90;97.70
19007;DHT22;9636;47.382;8.480;2023-08-17T05:38:03;23.90;97.60
19007;DHT22;9636;47.382;8.480;2023-08-17T05:40:32;24.00;97.50
19007;DHT22;9636;47.382;8.480;2023-08-17T05:43:00;24.10;97.50
19007;DHT22;9636;47.382;8.480;2023-08-17T05:45:27;24.20;97.50
19007;DHT22;9636;47.382;8.480;2023-08-17T05:47:54;24.30;97.30
19007;DHT22;9636;47.382;8.480;2023-08-17T05:50:23;24.40;97.30
19007;DHT22;9636;47.382;8.480;2023-08-17T05:52:52;24.40;97.30
19007;DHT22;9636;47.382;8.480;2023-08-17T05:55:19;24.50;97.20
19007;DHT22;9636;47.382;8.480;2023-08-17T05:57:48;24.60;97.20
19007;DHT22;9636;47.382;8.480;2023-08-17T06:00:15;24.50;97.40
19007;DHT22;9636;47.382;8.480;2023-08-17T06:02:42;24.30;97.70
19007;DHT22;9636;47.382;8.480;2023-08-17T06:05:15;24.10;97.60
19007;DHT22;9636;47.382;8.480;2023-08-17T06:07:42;24.10;97.40
19007;DHT22;9636;47.382;8.480;2023-08-17T06:10:10;24.20;97.70
19007;DHT22;9636;47.382;8.480;2023-08-17T06:12:37;24.10;97.40
19007;DHT22;9636;47.382;8.480;2023-08-17T06:15:07;24.10;97.60
19007;DHT22;9636;47.382;8.480;2023-08-17T06:17:35;24.10;97.80
19007;DHT22;9636;47.382;8.480;2023-08-17T06:20:03;24.20;97.60
19007;DHT22;9636;47.382;8.480;2023-08-17T06:22:30;24.30;97.70
19007;DHT22;9636;47.382;8.480;2023-08-17T06:24:57;24.40;98.50
19007;DHT22;9636;47.382;8.480;2023-08-17T06:27:24;24.40;97.90
19007;DHT22;9636;47.382;8.480;2023-08-17T06:29:51;24.50;97.30
19007;DHT22;9636;47.382;8.480;2023-08-17T06:32:20;24.50;97.30
19007;DHT22;9636;47.382;8.480;2023-08-17T06:34:47;24.40;97.30
19007;DHT22;9636;47.382;8.480;2023-08-17T06:37:14;24.50;97.20
19007;DHT22;9636;47.382;8.480;2023-08-17T06:39:42;24.60;97.60
19007;DHT22;9636;47.382;8.480;2023-08-17T06:42:09;24.70;97.50
19007;DHT22;9636;47.382;8.480;2023-08-17T06:44:36;24.60;97.60
19007;DHT22;9636;47.382;8.480;2023-08-17T06:47:03;24.60;96.90
19007;DHT22;9636;47.382;8.480;2023-08-17T06:49:32;24.70;96.50
19007;DHT22;9636;47.382;8.480;2023-08-17T06:51:59;24.70;97.30
19007;DHT22;9636;47.382;8.480;2023-08-17T06:54:26;24.80;97.30
19007;DHT22;9636;47.382;8.480;2023-08-17T06:56:53;24.80;98.10
19007;DHT22;9636;47.382;8.480;2023-08-17T06:59:20;24.90;96.80
19007;DHT22;9636;47.382;8.480;2023-08-17T07:01:48;25.10;98.50
19007;DHT22;9636;47.382;8.480;2023-08-17T07:04:15;25.00;97.00
19007;DHT22;9636;47.382;8.480;2023-08-17T07:06:43;25.10;96.50
19007;DHT22;9636;47.382;8.480;2023-08-17T07:09:10;25.30;96.10
19007;DHT22;9636;47.382;8.480;2023-08-17T07:11:38;25.20;95.40
19007;DHT22;9636;47.382;8.480;2023-08-17T07:14:05;25.40;96.70
19007;DHT22;9636;47.382;8.480;2023-08-17T07:16:33;25.50;97.40
19007;DHT22;9636;47.382;8.480;2023-08-17T07:19:00;25.60;97.40
19007;DHT22;9636;47.382;8.480;2023-08-17T07:21:27;25.60;97.30
19007;DHT22;9636;47.382;8.480;2023-08-17T07:23:55;25.60;97.10
19007;DHT22;9636;47.382;8.480;2023-08-17T07:26:23;25.70;97.60
19007;DHT22;9636;47.382;8.480;2023-08-17T07:28:50;25.80;97.60
19007;DHT22;9636;47.382;8.480;2023-08-17T07:31:17;25.80;98.10
19007;DHT22;9636;47.382;8.480;2023-08-17T07:33:44;25.80;97.30
19007;DHT22;9636;47.382;8.480;2023-08-17T07:36:11;25.80;97.90
19007;DHT22;9636;47.382;8.480;2023-08-17T07:38:38;25.90;97.10
19007;DHT22;9636;47.382;8.480;2023-08-17T07:41:06;26.00;95.90
19007;DHT22;9636;47.382;8.480;2023-08-17T07:43:34;26.10;95.50
19007;DHT22;9636;47.382;8.480;2023-08-17T07:46:01;26.30;96.60
19007;DHT22;9636;47.382;8.480;2023-08-17T07:48:28;26.40;96.50
19007;DHT22;9636;47.382;8.480;2023-08-17T07:50:59;26.50;95.80
19007;DHT22;9636;47.382;8.480;2023-08-17T07:53:26;26.60;96.00
19007;DHT22;9636;47.382;8.480;2023-08-17T07:55:53;26.60;96.70
19007;DHT22;9636;47.382;8.480;2023-08-17T07:58:21;26.80;95.60
19007;DHT22;9636;47.382;8.480;2023-08-17T08:00:48;26.90;95.00
19007;DHT22;9636;47.382;8.480;2023-08-17T08:03:15;27.00;95.50
19007;DHT22;9636;47.382;8.480;2023-08-17T08:05:42;27.10;94.50
19007;DHT22;9636;47.382;8.480;2023-08-17T08:08:09;27.10;94.50
19007;DHT22;9636;47.382;8.480;2023-08-17T08:10:36;27.20;94.70
19007;DHT22;9636;47.382;8.480;2023-08-17T08:13:03;27.30;94.00
19007;DHT22;9636;47.382;8.480;2023-08-17T08:15:33;27.50;94.10
19007;DHT22;9636;47.382;8.480;2023-08-17T08:18:00;27.60;93.80
19007;DHT22;9636;47.382;8.480;2023-08-17T08:20:26;27.70;94.40
19007;DHT22;9636;47.382;8.480;2023-08-17T08:22:54;27.80;93.50
19007;DHT22;9636;47.382;8.480;2023-08-17T08:25:21;27.90;93.40
19007;DHT22;9636;47.382;8.480;2023-08-17T08:27:48;28.10;92.90
19007;DHT22;9636;47.382;8.480;2023-08-17T08:30:15;28.30;92.80
19007;DHT22;9636;47.382;8.480;2023-08-17T08:32:44;28.40;92.60
19007;DHT22;9636;47.382;8.480;2023-08-17T08:35:11;28.40;92.50
19007;DHT22;9636;47.382;8.480;2023-08-17T08:37:38;28.40;92.50
19007;DHT22;9636;47.382;8.480;2023-08-17T08:40:10;28.50;92.20
19007;DHT22;9636;47.382;8.480;2023-08-17T08:42:37;28.40;92.20
19007;DHT22;9636;47.382;8.480;2023-08-17T08:45:05;28.30;92.70
19007;DHT22;9636;47.382;8.480;2023-08-17T08:47:34;28.10;93.10
19007;DHT22;9636;47.382;8.480;2023-08-17T08:50:05;28.10;93.50
19007;DHT22;9636;47.382;8.480;2023-08-17T08:52:34;28.10;94.10
19007;DHT22;9636;47.382;8.480;2023-08-17T08:55:10;28.00;94.30
19007;DHT22;9636;47.382;8.480;2023-08-17T08:57:38;28.00;94.00
19007;DHT22;9636;47.382;8.480;2023-08-17T09:00:08;28.20;95.40
19007;DHT22;9636;47.382;8.480;2023-08-17T09:02:35;28.20;94.70
19007;DHT22;9636;47.382;8.480;2023-08-17T09:05:06;28.10;94.20
19007;DHT22;9636;47.382;8.480;2023-08-17T09:07:33;28.10;94.00
19007;DHT22;9636;47.382;8.480;2023-08-17T09:10:02;28.10;95.10
19007;DHT22;9636;47.382;8.480;2023-08-17T09:12:30;28.30;94.70
19007;DHT22;9636;47.382;8.480;2023-08-17T09:14:57;28.50;94.50
19007;DHT22;9636;47.382;8.480;2023-08-17T09:17:24;28.70;94.10
19007;DHT22;9636;47.382;8.480;2023-08-17T09:19:51;28.80;94.00
19007;DHT22;9636;47.382;8.480;2023-08-17T09:22:24;28.80;94.50
19007;DHT22;9636;47.382;8.480;2023-08-17T09:24:51;28.90;93.70
19007;DHT22;9636;47.382;8.480;2023-08-17T09:27:18;29.00;93.80
19007;DHT22;9636;47.382;8.480;2023-08-17T09:29:46;29.10;93.80
19007;DHT22;9636;47.382;8.480;2023-08-17T09:32:14;29.20;94.20
19007;DHT22;9636;47.382;8.480;2023-08-17T09:34:43;29.20;93.90
19007;DHT22;9636;47.382;8.480;2023-08-17T09:37:12;29.20;94.10
19007;DHT22;9636;47.382;8.480;2023-08-17T09:39:41;29.10;93.70
19007;DHT22;9636;47.382;8.480;2023-08-17T09:42:08;29.10;94.10
19007;DHT22;9636;47.382;8.480;2023-08-17T09:44:37;29.20;93.10
19007;DHT22;9636;47.382;8.480;2023-08-17T09:47:05;29.30;93.10
19007;DHT22;9636;47.382;8.480;2023-08-17T09:49:32;29.30;94.00
19007;DHT22;9636;47.382;8.480;2023-08-17T09:52:00;29.40;93.80
19007;DHT22;9636;47.382;8.480;2023-08-17T09:54:30;29.40;93.60
19007;DHT22;9636;47.382;8.480;2023-08-17T09:56:59;29.50;94.00
19007;DHT22;9636;47.382;8.480;2023-08-17T09:59:27;29.60;93.90
19007;DHT22;9636;47.382;8.480;2023-08-17T10:01:54;29.70;93.60
19007;DHT22;9636;47.382;8.480;2023-08-17T10:04:23;29.80;93.60
19007;DHT22;9636;47.382;8.480;2023-08-17T10:06:59;29.90;94.10
19007;DHT22;9636;47.382;8.480;2023-08-17T10:09:31;29.90;94.00
19007;DHT22;9636;47.382;8.480;2023-08-17T10:12:08;29.90;93.40
19007;DHT22;9636;47.382;8.480;2023-08-17T10:14:39;29.80;93.10
19007;DHT22;9636;47.382;8.480;2023-08-17T10:17:14;29.80;93.00
19007;DHT22;9636;47.382;8.480;2023-08-17T10:19:49;29.70;92.70
19007;DHT22;9636;47.382;8.480;2023-08-17T10:22:23;29.80;93.80
19007;DHT22;9636;47.382;8.480;2023-08-17T10:24:53;29.90;92.80
19007;DHT22;9636;47.382;8.480;2023-08-17T10:27:22;29.90;92.90
19007;DHT22;9636;47.382;8.480;2023-08-17T10:29:51;30.00;93.00
19007;DHT22;9636;47.382;8.480;2023-08-17T10:32:23;30.00;92.40
19007;DHT22;9636;47.382;8.480;2023-08-17T10:34:52;30.00;93.20
19007;DHT22;9636;47.382;8.480;2023-08-17T10:37:19;30.00;92.20
19007;DHT22;9636;47.382;8.480;2023-08-17T10:39:48;30.00;91.80
19007;DHT22;9636;47.382;8.480;2023-08-17T10:42:15;30.10;91.60
19007;DHT22;9636;47.382;8.480;2023-08-17T10:44:57;30.10;91.90
19007;DHT22;9636;47.382;8.480;2023-08-17T10:47:28;30.20;91.60
19007;DHT22;9636;47.382;8.480;2023-08-17T10:49:58;30.30;91.50
19007;DHT22;9636;47.382;8.480;2023-08-17T10:52:29;30.40;91.30
19007;DHT22;9636;47.382;8.480;2023-08-17T10:54:59;30.40;91.10
19007;DHT22;9636;47.382;8.480;2023-08-17T10:57:31;30.40;90.50
19007;DHT22;9636;47.382;8.480;2023-08-17T11:00:14;30.50;90.80
19007;DHT22;9636;47.382;8.480;2023-08-17T11:02:43;30.50;90.80
19007;DHT22;9636;47.382;8.480;2023-08-17T11:05:12;30.60;91.00
19007;DHT22;9636;47.382;8.480;2023-08-17T11:07:40;30.60;90.90
19007;DHT22;9636;47.382;8.480;2023-08-17T11:10:12;30.70;91.10
19007;DHT22;9636;47.382;8.480;2023-08-17T11:12:41;30.80;91.10
19007;DHT22;9636;47.382;8.480;2023-08-17T11:15:10;30.80;90.20
19007;DHT22;9636;47.382;8.480;2023-08-17T11:17:37;30.80;88.10
19007;DHT22;9636;47.382;8.480;2023-08-17T11:20:05;30.80;88.60
19007;DHT22;9636;47.382;8.480;2023-08-17T11:22:34;30.80;85.30
19007;DHT22;9636;47.382;8.480;2023-08-17T11:25:01;30.80;84.30
19007;DHT22;9636;47.382;8.480;2023-08-17T11:27:30;30.80;84.60
19007;DHT22;9636;47.382;8.480;2023-08-17T11:29:57;30.80;82.00
19007;DHT22;9636;47.382;8.480;2023-08-17T11:32:26;30.90;84.10
19007;DHT22;9636;47.382;8.480;2023-08-17T11:34:52;30.80;81.30
19007;DHT22;9636;47.382;8.480;2023-08-17T11:37:20;30.80;83.50
19007;DHT22;9636;47.382;8.480;2023-08-17T11:39:49;30.80;83.90
19007;DHT22;9636;47.382;8.480;2023-08-17T11:42:16;30.70;86.50
19007;DHT22;9636;47.382;8.480;2023-08-17T11:44:43;30.70;85.30
19007;DHT22;9636;47.382;8.480;2023-08-17T11:47:10;30.70;86.40
19007;DHT22;9636;47.382;8.480;2023-08-17T11:49:39;30.60;87.00
19007;DHT22;9636;47.382;8.480;2023-08-17T11:52:09;30.60;89.20
19007;DHT22;9636;47.382;8.480;2023-08-17T11:54:40;30.70;86.10
19007;DHT22;9636;47.382;8.480;2023-08-17T11:57:07;30.80;86.00
19007;DHT22;9636;47.382;8.480;2023-08-17T11:59:34;30.80;85.90
19007;DHT22;9636;47.382;8.480;2023-08-17T12:02:01;30.80;85.10
19007;DHT22;9636;47.382;8.480;2023-08-17T12:04:28;30.90;85.10
19007;DHT22;9636;47.382;8.480;2023-08-17T12:06:57;30.90;87.90
19007;DHT22;9636;47.382;8.480;2023-08-17T12:09:24;30.90;85.00
19007;DHT22;9636;47.382;8.480;2023-08-17T12:11:58;30.90;85.90
19007;DHT22;9636;47.382;8.480;2023-08-17T12:14:26;30.90;84.70
19007;DHT22;9636;47.382;8.480;2023-08-17T12:16:55;30.90;84.80
19007;DHT22;9636;47.382;8.480;2023-08-17T12:19:24;30.90;84.30
19007;DHT22;9636;47.382;8.480;2023-08-17T12:21:51;30.90;84.10
19007;DHT22;9636;47.382;8.480;2023-08-17T12:24:20;30.90;85.90
19007;DHT22;9636;47.382;8.480;2023-08-17T12:26:50;31.00;85.20
19007;DHT22;9636;47.382;8.480;2023-08-17T12:29:17;31.00;84.80
19007;DHT22;9636;47.382;8.480;2023-08-17T12:31:44;30.90;81.90
19007;DHT22;9636;47.382;8.480;2023-08-17T12:34:12;30.70;80.30
19007;DHT22;9636;47.382;8.480;2023-08-17T12:36:38;30.80;80.20
19007;DHT22;9636;47.382;8.480;2023-08-17T12:39:06;30.80;79.60
19007;DHT22;9636;47.382;8.480;2023-08-17T12:41:34;30.70;79.20
19007;DHT22;9636;47.382;8.480;2023-08-17T12:44:01;30.70;79.90
19007;DHT22;9636;47.382;8.480;2023-08-17T12:46:28;30.70;79.60
19007;DHT22;9636;47.382;8.480;2023-08-17T12:48:58;30.80;79.90
19007;DHT22;9636;47.382;8.480;2023-08-17T12:51:25;30.90;79.60
19007;DHT22;9636;47.382;8.480;2023-08-17T12:53:52;30.80;79.20
19007;DHT22;9636;47.382;8.480;2023-08-17T12:56:19;30.70;78.40
19007;DHT22;9636;47.382;8.480;2023-08-17T12:58:47;30.70;77.80
19007;DHT22;9636;47.382;8.480;2023-08-17T13:01:14;30.70;78.30
19007;DHT22;9636;47.382;8.480;2023-08-17T13:03:41;30.70;77.90
19007;DHT22;9636;47.382;8.480;2023-08-17T13:06:09;30.60;77.80
19007;DHT22;9636;47.382;8.480;2023-08-17T13:08:36;30.70;77.90
19007;DHT22;9636;47.382;8.480;2023-08-17T13:11:03;30.70;78.30
19007;DHT22;9636;47.382;8.480;2023-08-17T13:13:31;30.70;79.10
19007;DHT22;9636;47.382;8.480;2023-08-17T13:15:59;30.70;79.70
19007;DHT22;9636;47.382;8.480;2023-08-17T13:18:26;30.60;79.60
19007;DHT22;9636;47.382;8.480;2023-08-17T13:20:54;30.70;80.50
19007;DHT22;9636;47.382;8.480;2023-08-17T13:23:20;30.70;80.50
19007;DHT22;9636;47.382;8.480;2023-08-17T13:25:47;30.60;80.10
19007;DHT22;9636;47.382;8.480;2023-08-17T13:28:14;30.60;80.20
19007;DHT22;9636;47.382;8.480;2023-08-17T13:30:41;30.50;80.60
19007;DHT22;9636;47.382;8.480;2023-08-17T13:33:10;30.50;80.90
19007;DHT22;9636;47.382;8.480;2023-08-17T13:35:38;30.50;80.90
19007;DHT22;9636;47.382;8.480;2023-08-17T13:38:05;30.40;80.30
19007;DHT22;9636;47.382;8.480;2023-08-17T13:40:32;30.50;80.40
19007;DHT22;9636;47.382;8.480;2023-08-17T13:42:59;30.50;80.10
19007;DHT22;9636;47.382;8.480;2023-08-17T13:45:27;30.50;80.10
19007;DHT22;9636;47.382;8.480;2023-08-17T13:47:54;30.50;79.20
19007;DHT22;9636;47.382;8.480;2023-08-17T13:50:22;30.40;79.60
19007;DHT22;9636;47.382;8.480;2023-08-17T13:52:49;30.40;79.00
19007;DHT22;9636;47.382;8.480;2023-08-17T13:55:17;30.40;78.60
19007;DHT22;9636;47.382;8.480;2023-08-17T13:57:44;30.40;78.80
19007;DHT22;9636;47.382;8.480;2023-08-17T14:00:12;30.20;79.30
19007;DHT22;9636;47.382;8.480;2023-08-17T14:02:40;30.30;79.30
19007;DHT22;9636;47.382;8.480;2023-08-17T14:05:07;30.20;80.10
19007;DHT22;9636;47.382;8.480;2023-08-17T14:07:35;30.20;79.70
19007;DHT22;9636;47.382;8.480;2023-08-17T14:10:03;30.20;80.30
19007;DHT22;9636;47.382;8.480;2023-08-17T14:12:30;30.20;81.20
19007;DHT22;9636;47.382;8.480;2023-08-17T14:14:57;30.20;81.50
19007;DHT22;9636;47.382;8.480;2023-08-17T14:17:24;30.30;81.00
19007;DHT22;9636;47.382;8.480;2023-08-17T14:19:51;30.30;81.90
19007;DHT22;9636;47.382;8.480;2023-08-17T14:22:18;30.30;81.90
19007;DHT22;9636;47.382;8.480;2023-08-17T14:24:46;30.20;82.90
19007;DHT22;9636;47.382;8.480;2023-08-17T14:27:13;30.20;83.90
19007;DHT22;9636;47.382;8.480;2023-08-17T14:29:40;30.20;84.10
19007;DHT22;9636;47.382;8.480;2023-08-17T14:32:07;30.20;84.00
19007;DHT22;9636;47.382;8.480;2023-08-17T14:34:34;30.20;84.90
19007;DHT22;9636;47.382;8.480;2023-08-17T14:37:01;30.20;85.50
19007;DHT22;9636;47.382;8.480;2023-08-17T14:39:29;30.10;85.50
19007;DHT22;9636;47.382;8.480;2023-08-17T14:41:57;30.10;84.90
19007;DHT22;9636;47.382;8.480;2023-08-17T14:44:24;30.00;85.00
19007;DHT22;9636;47.382;8.480;2023-08-17T14:46:51;30.00;86.40
19007;DHT22;9636;47.382;8.480;2023-08-17T14:49:18;29.90;87.50
19007;DHT22;9636;47.382;8.480;2023-08-17T14:51:46;29.80;88.40
19007;DHT22;9636;47.382;8.480;2023-08-17T14:54:13;29.70;89.90
19007;DHT22;9636;47.382;8.480;2023-08-17T14:56:40;29.70;89.90
19007;DHT22;9636;47.382;8.480;2023-08-17T14:59:09;29.60;90.00
19007;DHT22;9636;47.382;8.480;2023-08-17T15:01:36;29.50;90.40
19007;DHT22;9636;47.382;8.480;2023-08-17T15:04:03;29.50;91.10
19007;DHT22;9636;47.382;8.480;2023-08-17T15:06:30;29.40;89.60
19007;DHT22;9636;47.382;8.480;2023-08-17T15:08:57;29.40;89.80
19007;DHT22;9636;47.382;8.480;2023-08-17T15:11:24;29.40;88.20
19007;DHT22;9636;47.382;8.480;2023-08-17T15:13:51;29.40;85.80
19007;DHT22;9636;47.382;8.480;2023-08-17T15:16:20;29.40;84.60
19007;DHT22;9636;47.382;8.480;2023-08-17T15:18:50;29.40;84.20
19007;DHT22;9636;47.382;8.480;2023-08-17T15:21:17;29.40;84.20
19007;DHT22;9636;47.382;8.480;2023-08-17T15:23:44;29.40;83.60
19007;DHT22;9636;47.382;8.480;2023-08-17T15:26:11;29.30;82.60
19007;DHT22;9636;47.382;8.480;2023-08-17T15:28:40;29.30;83.20
19007;DHT22;9636;47.382;8.480;2023-08-17T15:31:07;29.30;81.60
19007;DHT22;9636;47.382;8.480;2023-08-17T15:33:39;29.40;81.70
19007;DHT22;9636;47.382;8.480;2023-08-17T15:36:06;29.40;81.10
19007;DHT22;9636;47.382;8.480;2023-08-17T15:38:33;29.30;81.50
19007;DHT22;9636;47.382;8.480;2023-08-17T15:41:00;29.30;85.40
19007;DHT22;9636;47.382;8.480;2023-08-17T15:43:29;29.20;87.60
19007;DHT22;9636;47.382;8.480;2023-08-17T15:45:56;29.00;88.90
19007;DHT22;9636;47.382;8.480;2023-08-17T15:48:23;28.90;89.10